sensor_id;sensor_type;location;lat;lon;timestamp;P1;durP1;ratioP1;P2;durP2;ratioP2
47715;SDS011;33476;50.984;3.538;2022-09-27T00:01:49;4.40;;;0.30;;
47715;SDS011;33476;50.984;3.538;2022-09-27T00:04:15;6.68;;;0.60;;
47715;SDS011;33476;50.984;3.538;2022-09-27T00:06:40;4.10;;;0.30;;
47715;SDS011;33476;50.984;3.538;2022-09-27T00:09:05;5.63;;;0.43;;
47715;SDS011;33476;50.984;3.538;2022-09-27T00:11:32;4.07;;;0.40;;
47715;SDS011;33476;50.984;3.538;2022-09-27T00:13:59;6.43;;;0.30;;
47715;SDS011;33476;50.984;3.538;2022-09-27T00:16:26;4.45;;;0.20;;
47715;SDS011;33476;50.984;3.538;2022-09-27T00:19:03;3.33;;;0.22;;
47715;SDS011;33476;50.984;3.538;2022-09-27T00:21:30;0.95;;;0.20;;
47715;SDS011;33476;50.984;3.538;2022-09-27T00:23:56;1.50;;;0.10;;
47715;SDS011;33476;50.984;3.538;2022-09-27T00:26:23;1.08;;;0.17;;
47715;SDS011;33476;50.984;3.538;2022-09-27T00:28:49;2.92;;;0.30;;
47715;SDS011;33476;50.984;3.538;2022-09-27T00:31:19;3.45;;;0.28;;
47715;SDS011;33476;50.984;3.538;2022-09-27T00:33:47;3.42;;;0.20;;
47715;SDS011;33476;50.984;3.538;2022-09-27T00:36:13;1.98;;;0.10;;
47715;SDS011;33476;50.984;3.538;2022-09-27T00:38:39;2.25;;;0.20;;
47715;SDS011;33476;50.984;3.538;2022-09-27T00:41:05;1.90;;;0.20;;
47715;SDS011;33476;50.984;3.538;2022-09-27T00:43:45;1.33;;;0.20;;
47715;SDS011;33476;50.984;3.538;2022-09-27T00:48:59;2.72;;;0.28;;
47715;SDS011;33476;50.984;3.538;2022-09-27T00:51:29;1.48;;;0.20;;
47715;SDS011;33476;50.984;3.538;2022-09-27T00:53:58;4.90;;;0.40;;
47715;SDS011;33476;50.984;3.538;2022-09-27T00:56:26;2.45;;;0.28;;
47715;SDS011;33476;50.984;3.538;2022-09-27T00:58:56;2.70;;;0.30;;
47715;SDS011;33476;50.984;3.538;2022-09-27T01:01:28;4.25;;;0.30;;
47715;SDS011;33476;50.984;3.538;2022-09-27T01:03:56;2.60;;;0.20;;
47715;SDS011;33476;50.984;3.538;2022-09-27T01:06:26;2.40;;;0.20;;
47715;SDS011;33476;50.984;3.538;2022-09-27T01:08:51;3.70;;;0.28;;
47715;SDS011;33476;50.984;3.538;2022-09-27T01:11:18;1.77;;;0.25;;
47715;SDS011;33476;50.984;3.538;2022-09-27T01:17:07;0.93;;;0.10;;
47715;SDS011;33476;50.984;3.538;2022-09-27T01:22:39;5.57;;;0.25;;
47715;SDS011;33476;50.984;3.538;2022-09-27T01:25:40;1.67;;;0.20;;
47715;SDS011;33476;50.984;3.538;2022-09-27T01:30:39;1.88;;;0.30;;
47715;SDS011;33476;50.984;3.538;2022-09-27T01:38:45;1.23;;;0.20;;
47715;SDS011;33476;50.984;3.538;2022-09-27T01:41:14;6.18;;;0.20;;
47715;SDS011;33476;50.984;3.538;2022-09-27T01:44:04;2.67;;;0.30;;
47715;SDS011;33476;50.984;3.538;2022-09-27T01:46:39;3.08;;;0.30;;
47715;SDS011;33476;50.984;3.538;2022-09-27T01:49:15;4.57;;;0.52;;
47715;SDS011;33476;50.984;3.538;2022-09-27T01:51:47;7.10;;;0.70;;
47715;SDS011;33476;50.984;3.538;2022-09-27T01:54:22;3.25;;;0.35;;
47715;SDS011;33476;50.984;3.538;2022-09-27T01:56:54;1.20;;;0.50;;
47715;SDS011;33476;50.984;3.538;2022-09-27T01:59:25;4.55;;;0.75;;
47715;SDS011;33476;50.984;3.538;2022-09-27T02:01:56;4.55;;;0.80;;
47715;SDS011;33476;50.984;3.538;2022-09-27T02:04:27;2.38;;;0.50;;
47715;SDS011;33476;50.984;3.538;2022-09-27T02:06:57;6.68;;;0.80;;
47715;SDS011;33476;50.984;3.538;2022-09-27T02:09:30;3.83;;;0.60;;
47715;SDS011;33476;50.984;3.538;2022-09-27T02:12:02;3.83;;;0.32;;
47715;SDS011;33476;50.984;3.538;2022-09-27T02:14:39;3.35;;;0.57;;
47715;SDS011;33476;50.984;3.538;2022-09-27T02:24:57;2.53;;;0.50;;
47715;SDS011;33476;50.984;3.538;2022-09-27T02:27:34;5.85;;;0.47;;
47715;SDS011;33476;50.984;3.538;2022-09-27T02:30:12;4.05;;;0.73;;
47715;SDS011;33476;50.984;3.538;2022-09-27T02:32:39;2.30;;;0.73;;
47715;SDS011;33476;50.984;3.538;2022-09-27T02:35:11;6.78;;;0.80;;
47715;SDS011;33476;50.984;3.538;2022-09-27T02:37:41;3.55;;;0.88;;
47715;SDS011;33476;50.984;3.538;2022-09-27T02:40:07;4.22;;;0.60;;
47715;SDS011;33476;50.984;3.538;2022-09-27T02:42:32;1.45;;;0.30;;
47715;SDS011;33476;50.984;3.538;2022-09-27T02:44:59;5.78;;;0.50;;
47715;SDS011;33476;50.984;3.538;2022-09-27T02:55:27;1.50;;;0.25;;
47715;SDS011;33476;50.984;3.538;2022-09-27T03:06:31;1.48;;;0.10;;
47715;SDS011;33476;50.984;3.538;2022-09-27T03:08:57;3.00;;;0.30;;
47715;SDS011;33476;50.984;3.538;2022-09-27T03:11:23;0.98;;;0.10;;
47715;SDS011;33476;50.984;3.538;2022-09-27T03:13:48;3.03;;;0.30;;
47715;SDS011;33476;50.984;3.538;2022-09-27T03:16:14;4.13;;;0.10;;
47715;SDS011;33476;50.984;3.538;2022-09-27T03:18:40;1.73;;;0.10;;
47715;SDS011;33476;50.984;3.538;2022-09-27T03:21:05;1.00;;;0.10;;
47715;SDS011;33476;50.984;3.538;2022-09-27T03:23:31;0.95;;;0.10;;
47715;SDS011;33476;50.984;3.538;2022-09-27T03:25:56;0.50;;;0.20;;
47715;SDS011;33476;50.984;3.538;2022-09-27T03:28:22;3.70;;;0.10;;
47715;SDS011;33476;50.984;3.538;2022-09-27T03:30:49;2.13;;;0.20;;
47715;SDS011;33476;50.984;3.538;2022-09-27T03:33:14;2.63;;;0.20;;
47715;SDS011;33476;50.984;3.538;2022-09-27T03:35:40;2.22;;;0.10;;
47715;SDS011;33476;50.984;3.538;2022-09-27T03:38:07;3.28;;;0.20;;
47715;SDS011;33476;50.984;3.538;2022-09-27T03:40:33;0.68;;;0.10;;
47715;SDS011;33476;50.984;3.538;2022-09-27T03:42:58;2.33;;;0.10;;
47715;SDS011;33476;50.984;3.538;2022-09-27T03:45:24;2.85;;;0.20;;
47715;SDS011;33476;50.984;3.538;2022-09-27T03:47:49;1.92;;;0.25;;
47715;SDS011;33476;50.984;3.538;2022-09-27T03:50:15;0.73;;;0.20;;
47715;SDS011;33476;50.984;3.538;2022-09-27T03:52:43;0.95;;;0.10;;
47715;SDS011;33476;50.984;3.538;2022-09-27T03:55:09;2.88;;;0.32;;
47715;SDS011;33476;50.984;3.538;2022-09-27T03:57:35;2.03;;;0.10;;
47715;SDS011;33476;50.984;3.538;2022-09-27T04:00:01;0.47;;;0.10;;
47715;SDS011;33476;50.984;3.538;2022-09-27T04:02:26;1.05;;;0.10;;
47715;SDS011;33476;50.984;3.538;2022-09-27T04:04:52;0.88;;;0.10;;
47715;SDS011;33476;50.984;3.538;2022-09-27T04:07:17;1.55;;;0.40;;
47715;SDS011;33476;50.984;3.538;2022-09-27T04:09:43;3.30;;;0.70;;
47715;SDS011;33476;50.984;3.538;2022-09-27T04:12:10;1.67;;;0.65;;
47715;SDS011;33476;50.984;3.538;2022-09-27T04:14:36;4.45;;;0.63;;
47715;SDS011;33476;50.984;3.538;2022-09-27T04:17:01;2.08;;;0.30;;
47715;SDS011;33476;50.984;3.538;2022-09-27T04:19:27;1.50;;;0.30;;
47715;SDS011;33476;50.984;3.538;2022-09-27T04:21:52;1.38;;;0.20;;
47715;SDS011;33476;50.984;3.538;2022-09-27T04:24:17;3.65;;;0.13;;
47715;SDS011;33476;50.984;3.538;2022-09-27T04:26:43;1.10;;;0.10;;
47715;SDS011;33476;50.984;3.538;2022-09-27T04:29:08;1.13;;;0.20;;
47715;SDS011;33476;50.984;3.538;2022-09-27T04:31:34;1.20;;;0.30;;
47715;SDS011;33476;50.984;3.538;2022-09-27T04:34:02;0.65;;;0.20;;
47715;SDS011;33476;50.984;3.538;2022-09-27T04:36:28;1.00;;;0.10;;
47715;SDS011;33476;50.984;3.538;2022-09-27T04:38:54;1.75;;;0.15;;
47715;SDS011;33476;50.984;3.538;2022-09-27T04:41:20;0.38;;;0.10;;
47715;SDS011;33476;50.984;3.538;2022-09-27T04:43:47;3.58;;;0.20;;
47715;SDS011;33476;50.984;3.538;2022-09-27T04:46:13;0.40;;;0.20;;
47715;SDS011;33476;50.984;3.538;2022-09-27T04:48:38;2.58;;;0.38;;
47715;SDS011;33476;50.984;3.538;2022-09-27T04:51:05;3.35;;;0.20;;
47715;SDS011;33476;50.984;3.538;2022-09-27T04:53:30;1.38;;;0.15;;
47715;SDS011;33476;50.984;3.538;2022-09-27T04:55:56;4.15;;;0.30;;
47715;SDS011;33476;50.984;3.538;2022-09-27T04:58:22;1.67;;;0.20;;
47715;SDS011;33476;50.984;3.538;2022-09-27T05:00:49;2.95;;;0.20;;
47715;SDS011;33476;50.984;3.538;2022-09-27T05:03:19;3.20;;;0.35;;
47715;SDS011;33476;50.984;3.538;2022-09-27T05:05:45;1.65;;;0.40;;
47715;SDS011;33476;50.984;3.538;2022-09-27T05:08:11;2.78;;;0.63;;
47715;SDS011;33476;50.984;3.538;2022-09-27T05:10:36;3.55;;;0.60;;
47715;SDS011;33476;50.984;3.538;2022-09-27T05:13:02;1.70;;;0.68;;
47715;SDS011;33476;50.984;3.538;2022-09-27T05:15:27;2.80;;;0.68;;
47715;SDS011;33476;50.984;3.538;2022-09-27T05:17:53;3.90;;;0.50;;
47715;SDS011;33476;50.984;3.538;2022-09-27T05:20:18;5.13;;;0.80;;
47715;SDS011;33476;50.984;3.538;2022-09-27T05:22:44;1.50;;;0.30;;
47715;SDS011;33476;50.984;3.538;2022-09-27T05:25:10;4.85;;;0.45;;
47715;SDS011;33476;50.984;3.538;2022-09-27T05:27:36;3.15;;;0.40;;
47715;SDS011;33476;50.984;3.538;2022-09-27T05:30:02;3.53;;;0.43;;
47715;SDS011;33476;50.984;3.538;2022-09-27T05:32:28;1.75;;;0.30;;
47715;SDS011;33476;50.984;3.538;2022-09-27T05:34:54;4.07;;;0.50;;
47715;SDS011;33476;50.984;3.538;2022-09-27T05:37:19;2.60;;;0.28;;
47715;SDS011;33476;50.984;3.538;2022-09-27T05:39:45;3.92;;;0.50;;
47715;SDS011;33476;50.984;3.538;2022-09-27T05:42:11;6.03;;;0.40;;
47715;SDS011;33476;50.984;3.538;2022-09-27T05:44:39;0.90;;;0.55;;
47715;SDS011;33476;50.984;3.538;2022-09-27T05:47:05;1.58;;;0.40;;
47715;SDS011;33476;50.984;3.538;2022-09-27T05:49:33;1.35;;;0.57;;
47715;SDS011;33476;50.984;3.538;2022-09-27T05:51:58;4.10;;;0.93;;
47715;SDS011;33476;50.984;3.538;2022-09-27T05:54:24;4.10;;;0.95;;
47715;SDS011;33476;50.984;3.538;2022-09-27T05:56:53;3.15;;;1.08;;
47715;SDS011;33476;50.984;3.538;2022-09-27T05:59:22;4.50;;;1.00;;
47715;SDS011;33476;50.984;3.538;2022-09-27T06:01:48;2.63;;;1.30;;
47715;SDS011;33476;50.984;3.538;2022-09-27T06:04:14;5.68;;;1.58;;
47715;SDS011;33476;50.984;3.538;2022-09-27T06:06:40;3.47;;;1.20;;
47715;SDS011;33476;50.984;3.538;2022-09-27T06:09:08;5.40;;;1.42;;
47715;SDS011;33476;50.984;3.538;2022-09-27T06:11:34;4.60;;;1.02;;
47715;SDS011;33476;50.984;3.538;2022-09-27T06:14:00;3.78;;;1.27;;
47715;SDS011;33476;50.984;3.538;2022-09-27T06:16:25;2.92;;;0.77;;
47715;SDS011;33476;50.984;3.538;2022-09-27T06:18:50;5.80;;;0.70;;
47715;SDS011;33476;50.984;3.538;2022-09-27T06:21:16;3.80;;;0.55;;
47715;SDS011;33476;50.984;3.538;2022-09-27T06:23:41;2.10;;;0.43;;
47715;SDS011;33476;50.984;3.538;2022-09-27T06:26:06;3.65;;;0.52;;
47715;SDS011;33476;50.984;3.538;2022-09-27T06:28:32;5.35;;;0.63;;
47715;SDS011;33476;50.984;3.538;2022-09-27T06:31:00;3.10;;;0.30;;
47715;SDS011;33476;50.984;3.538;2022-09-27T06:33:28;2.95;;;0.38;;
47715;SDS011;33476;50.984;3.538;2022-09-27T06:35:54;2.67;;;0.25;;
47715;SDS011;33476;50.984;3.538;2022-09-27T06:38:19;2.15;;;0.30;;
47715;SDS011;33476;50.984;3.538;2022-09-27T06:40:45;4.07;;;0.20;;
47715;SDS011;33476;50.984;3.538;2022-09-27T06:43:15;2.75;;;0.65;;
47715;SDS011;33476;50.984;3.538;2022-09-27T06:48:08;3.22;;;0.30;;
47715;SDS011;33476;50.984;3.538;2022-09-27T06:50:35;1.25;;;0.22;;
47715;SDS011;33476;50.984;3.538;2022-09-27T06:53:03;4.32;;;0.20;;
47715;SDS011;33476;50.984;3.538;2022-09-27T06:55:29;4.22;;;0.30;;
47715;SDS011;33476;50.984;3.538;2022-09-27T06:57:55;1.52;;;0.20;;
47715;SDS011;33476;50.984;3.538;2022-09-27T07:00:40;2.65;;;0.35;;
47715;SDS011;33476;50.984;3.538;2022-09-27T07:03:07;2.45;;;0.28;;
47715;SDS011;33476;50.984;3.538;2022-09-27T07:05:33;2.60;;;0.30;;
47715;SDS011;33476;50.984;3.538;2022-09-27T07:07:59;3.92;;;0.20;;
47715;SDS011;33476;50.984;3.538;2022-09-27T07:10:25;2.85;;;0.20;;
47715;SDS011;33476;50.984;3.538;2022-09-27T07:12:53;6.20;;;0.30;;
47715;SDS011;33476;50.984;3.538;2022-09-27T07:15:19;1.27;;;0.30;;
47715;SDS011;33476;50.984;3.538;2022-09-27T07:17:46;3.03;;;0.15;;
47715;SDS011;33476;50.984;3.538;2022-09-27T07:20:12;2.33;;;0.52;;
47715;SDS011;33476;50.984;3.538;2022-09-27T07:22:39;1.73;;;0.20;;
47715;SDS011;33476;50.984;3.538;2022-09-27T07:25:06;1.23;;;0.47;;
47715;SDS011;33476;50.984;3.538;2022-09-27T07:27:31;3.03;;;0.20;;
47715;SDS011;33476;50.984;3.538;2022-09-27T07:29:59;2.53;;;0.20;;
47715;SDS011;33476;50.984;3.538;2022-09-27T07:32:24;1.20;;;0.15;;
47715;SDS011;33476;50.984;3.538;2022-09-27T07:34:50;2.88;;;0.30;;
47715;SDS011;33476;50.984;3.538;2022-09-27T07:37:15;1.92;;;0.30;;
47715;SDS011;33476;50.984;3.538;2022-09-27T07:39:41;4.60;;;0.40;;
47715;SDS011;33476;50.984;3.538;2022-09-27T07:42:06;1.30;;;0.30;;
47715;SDS011;33476;50.984;3.538;2022-09-27T07:44:32;1.73;;;0.10;;
47715;SDS011;33476;50.984;3.538;2022-09-27T07:46:57;1.23;;;0.35;;
47715;SDS011;33476;50.984;3.538;2022-09-27T07:49:22;2.17;;;0.52;;
47715;SDS011;33476;50.984;3.538;2022-09-27T07:51:48;1.85;;;0.30;;
47715;SDS011;33476;50.984;3.538;2022-09-27T07:54:13;4.53;;;0.20;;
47715;SDS011;33476;50.984;3.538;2022-09-27T07:56:39;0.88;;;0.15;;
47715;SDS011;33476;50.984;3.538;2022-09-27T07:59:04;1.50;;;0.55;;
47715;SDS011;33476;50.984;3.538;2022-09-27T08:01:29;2.03;;;0.60;;
47715;SDS011;33476;50.984;3.538;2022-09-27T08:03:55;7.13;;;0.60;;
47715;SDS011;33476;50.984;3.538;2022-09-27T08:06:22;1.63;;;0.20;;
47715;SDS011;33476;50.984;3.538;2022-09-27T08:08:49;2.05;;;0.38;;
47715;SDS011;33476;50.984;3.538;2022-09-27T08:11:15;3.35;;;0.63;;
47715;SDS011;33476;50.984;3.538;2022-09-27T08:13:43;0.90;;;0.32;;
47715;SDS011;33476;50.984;3.538;2022-09-27T08:16:10;4.22;;;0.38;;
47715;SDS011;33476;50.984;3.538;2022-09-27T08:18:36;3.05;;;0.65;;
47715;SDS011;33476;50.984;3.538;2022-09-27T08:21:02;2.03;;;0.40;;
47715;SDS011;33476;50.984;3.538;2022-09-27T08:23:28;2.05;;;0.35;;
47715;SDS011;33476;50.984;3.538;2022-09-27T08:25:54;2.60;;;0.40;;
47715;SDS011;33476;50.984;3.538;2022-09-27T08:28:22;2.67;;;0.45;;
47715;SDS011;33476;50.984;3.538;2022-09-27T08:30:48;3.72;;;0.65;;
47715;SDS011;33476;50.984;3.538;2022-09-27T08:33:14;4.07;;;0.40;;
47715;SDS011;33476;50.984;3.538;2022-09-27T08:35:40;2.22;;;0.50;;
47715;SDS011;33476;50.984;3.538;2022-09-27T08:38:06;5.55;;;0.57;;
47715;SDS011;33476;50.984;3.538;2022-09-27T08:46:02;3.42;;;0.50;;
47715;SDS011;33476;50.984;3.538;2022-09-27T08:48:30;6.00;;;0.40;;
47715;SDS011;33476;50.984;3.538;2022-09-27T08:50:56;3.80;;;0.30;;
47715;SDS011;33476;50.984;3.538;2022-09-27T08:53:24;4.90;;;0.40;;
47715;SDS011;33476;50.984;3.538;2022-09-27T08:55:55;3.28;;;0.32;;
47715;SDS011;33476;50.984;3.538;2022-09-27T09:00:53;4.03;;;0.43;;
47715;SDS011;33476;50.984;3.538;2022-09-27T09:03:22;9.20;;;0.45;;
47715;SDS011;33476;50.984;3.538;2022-09-27T09:17:23;4.10;;;0.28;;
47715;SDS011;33476;50.984;3.538;2022-09-27T09:23:06;4.30;;;0.50;;
47715;SDS011;33476;50.984;3.538;2022-09-27T09:31:25;3.17;;;0.30;;
47715;SDS011;33476;50.984;3.538;2022-09-27T09:36:45;3.75;;;0.20;;
47715;SDS011;33476;50.984;3.538;2022-09-27T09:44:57;5.00;;;0.20;;
47715;SDS011;33476;50.984;3.538;2022-09-27T09:47:31;2.97;;;0.20;;
47715;SDS011;33476;50.984;3.538;2022-09-27T09:50:04;3.35;;;0.10;;
47715;SDS011;33476;50.984;3.538;2022-09-27T09:52:41;2.97;;;0.30;;
47715;SDS011;33476;50.984;3.538;2022-09-27T09:55:18;2.47;;;0.10;;
47715;SDS011;33476;50.984;3.538;2022-09-27T10:00:45;0.88;;;0.10;;
47715;SDS011;33476;50.984;3.538;2022-09-27T10:03:14;1.10;;;0.10;;
47715;SDS011;33476;50.984;3.538;2022-09-27T10:05:41;0.82;;;0.08;;
47715;SDS011;33476;50.984;3.538;2022-09-27T10:08:11;2.05;;;0.00;;
47715;SDS011;33476;50.984;3.538;2022-09-27T10:10:41;1.05;;;0.00;;
47715;SDS011;33476;50.984;3.538;2022-09-27T10:13:07;1.00;;;0.00;;
47715;SDS011;33476;50.984;3.538;2022-09-27T10:15:39;1.63;;;0.10;;
47715;SDS011;33476;50.984;3.538;2022-09-27T10:18:07;4.25;;;0.20;;
47715;SDS011;33476;50.984;3.538;2022-09-27T10:20:47;0.80;;;0.10;;
47715;SDS011;33476;50.984;3.538;2022-09-27T10:23:17;2.03;;;0.13;;
47715;SDS011;33476;50.984;3.538;2022-09-27T10:28:32;0.98;;;0.20;;
47715;SDS011;33476;50.984;3.538;2022-09-27T10:31:08;0.65;;;0.08;;
47715;SDS011;33476;50.984;3.538;2022-09-27T10:33:36;1.58;;;0.10;;
47715;SDS011;33476;50.984;3.538;2022-09-27T10:36:26;1.85;;;0.40;;
47715;SDS011;33476;50.984;3.538;2022-09-27T10:38:56;1.35;;;0.30;;
47715;SDS011;33476;50.984;3.538;2022-09-27T10:41:31;0.57;;;0.10;;
47715;SDS011;33476;50.984;3.538;2022-09-27T10:43:57;1.60;;;0.38;;
47715;SDS011;33476;50.984;3.538;2022-09-27T10:46:50;1.02;;;0.10;;
47715;SDS011;33476;50.984;3.538;2022-09-27T10:51:43;2.58;;;0.25;;
47715;SDS011;33476;50.984;3.538;2022-09-27T10:54:24;3.75;;;0.25;;
47715;SDS011;33476;50.984;3.538;2022-09-27T10:56:55;8.27;;;0.55;;
47715;SDS011;33476;50.984;3.538;2022-09-27T10:59:29;3.92;;;0.40;;
47715;SDS011;33476;50.984;3.538;2022-09-27T11:01:58;2.65;;;0.55;;
47715;SDS011;33476;50.984;3.538;2022-09-27T11:06:50;5.38;;;0.50;;
47715;SDS011;33476;50.984;3.538;2022-09-27T11:09:17;6.03;;;0.77;;
47715;SDS011;33476;50.984;3.538;2022-09-27T11:11:47;4.38;;;0.68;;
47715;SDS011;33476;50.984;3.538;2022-09-27T11:14:16;13.10;;;0.98;;
47715;SDS011;33476;50.984;3.538;2022-09-27T11:19:47;6.55;;;0.30;;
47715;SDS011;33476;50.984;3.538;2022-09-27T11:22:42;6.47;;;0.55;;
47715;SDS011;33476;50.984;3.538;2022-09-27T11:28:31;6.13;;;0.40;;
47715;SDS011;33476;50.984;3.538;2022-09-27T11:53:22;4.03;;;0.30;;
47715;SDS011;33476;50.984;3.538;2022-09-27T12:01:26;4.43;;;0.20;;
47715;SDS011;33476;50.984;3.538;2022-09-27T12:04:18;1.45;;;0.10;;
47715;SDS011;33476;50.984;3.538;2022-09-27T12:09:47;2.58;;;0.32;;
47715;SDS011;33476;50.984;3.538;2022-09-27T12:12:24;6.55;;;0.30;;
47715;SDS011;33476;50.984;3.538;2022-09-27T12:15:03;3.08;;;0.30;;
47715;SDS011;33476;50.984;3.538;2022-09-27T12:17:37;6.78;;;0.40;;
47715;SDS011;33476;50.984;3.538;2022-09-27T12:20:09;2.88;;;0.13;;
47715;SDS011;33476;50.984;3.538;2022-09-27T12:25:20;4.28;;;0.38;;
47715;SDS011;33476;50.984;3.538;2022-09-27T12:27:50;3.83;;;0.20;;
47715;SDS011;33476;50.984;3.538;2022-09-27T12:30:22;5.38;;;0.40;;
47715;SDS011;33476;50.984;3.538;2022-09-27T12:35:20;2.50;;;0.38;;
47715;SDS011;33476;50.984;3.538;2022-09-27T12:37:56;6.35;;;0.60;;
47715;SDS011;33476;50.984;3.538;2022-09-27T12:40:39;5.50;;;0.50;;
47715;SDS011;33476;50.984;3.538;2022-09-27T12:43:13;3.95;;;0.28;;
47715;SDS011;33476;50.984;3.538;2022-09-27T12:50:47;2.97;;;0.20;;
47715;SDS011;33476;50.984;3.538;2022-09-27T12:53:36;1.50;;;0.10;;
47715;SDS011;33476;50.984;3.538;2022-09-27T12:59:41;1.73;;;0.10;;
47715;SDS011;33476;50.984;3.538;2022-09-27T13:05:03;2.05;;;0.15;;
47715;SDS011;33476;50.984;3.538;2022-09-27T13:10:26;2.05;;;0.10;;
47715;SDS011;33476;50.984;3.538;2022-09-27T13:12:53;2.30;;;0.13;;
47715;SDS011;33476;50.984;3.538;2022-09-27T13:15:32;1.65;;;0.13;;
47715;SDS011;33476;50.984;3.538;2022-09-27T13:18:00;1.75;;;0.20;;
47715;SDS011;33476;50.984;3.538;2022-09-27T13:26:03;4.32;;;0.50;;
47715;SDS011;33476;50.984;3.538;2022-09-27T13:31:13;2.00;;;0.10;;
47715;SDS011;33476;50.984;3.538;2022-09-27T13:33:49;0.90;;;0.10;;
47715;SDS011;33476;50.984;3.538;2022-09-27T13:39:34;1.08;;;0.20;;
47715;SDS011;33476;50.984;3.538;2022-09-27T13:44:27;2.63;;;0.40;;
47715;SDS011;33476;50.984;3.538;2022-09-27T13:47:22;3.70;;;0.75;;
47715;SDS011;33476;50.984;3.538;2022-09-27T13:50:12;8.68;;;1.23;;
47715;SDS011;33476;50.984;3.538;2022-09-27T13:52:45;3.75;;;0.50;;
47715;SDS011;33476;50.984;3.538;2022-09-27T13:55:49;3.83;;;0.50;;
47715;SDS011;33476;50.984;3.538;2022-09-27T13:58:23;2.20;;;0.40;;
47715;SDS011;33476;50.984;3.538;2022-09-27T14:00:51;6.05;;;0.50;;
47715;SDS011;33476;50.984;3.538;2022-09-27T14:06:19;3.42;;;0.30;;
47715;SDS011;33476;50.984;3.538;2022-09-27T14:08:53;5.22;;;0.30;;
47715;SDS011;33476;50.984;3.538;2022-09-27T14:11:36;1.10;;;0.10;;
47715;SDS011;33476;50.984;3.538;2022-09-27T14:14:03;3.20;;;0.10;;
47715;SDS011;33476;50.984;3.538;2022-09-27T14:16:31;5.85;;;0.28;;
47715;SDS011;33476;50.984;3.538;2022-09-27T14:19:00;2.60;;;0.35;;
47715;SDS011;33476;50.984;3.538;2022-09-27T14:21:30;2.75;;;0.35;;
47715;SDS011;33476;50.984;3.538;2022-09-27T14:27:05;2.65;;;0.10;;
47715;SDS011;33476;50.984;3.538;2022-09-27T14:32:24;1.40;;;0.10;;
47715;SDS011;33476;50.984;3.538;2022-09-27T14:37:58;1.13;;;0.32;;
47715;SDS011;33476;50.984;3.538;2022-09-27T14:40:26;3.58;;;0.55;;
47715;SDS011;33476;50.984;3.538;2022-09-27T14:42:55;2.85;;;0.20;;
47715;SDS011;33476;50.984;3.538;2022-09-27T14:45:25;1.15;;;0.30;;
47715;SDS011;33476;50.984;3.538;2022-09-27T14:47:56;2.78;;;0.17;;
47715;SDS011;33476;50.984;3.538;2022-09-27T14:52:52;0.50;;;0.10;;
47715;SDS011;33476;50.984;3.538;2022-09-27T14:55:21;2.25;;;0.38;;
47715;SDS011;33476;50.984;3.538;2022-09-27T14:57:58;4.60;;;0.20;;
47715;SDS011;33476;50.984;3.538;2022-09-27T15:00:30;2.58;;;0.30;;
47715;SDS011;33476;50.984;3.538;2022-09-27T15:03:00;2.58;;;0.20;;
47715;SDS011;33476;50.984;3.538;2022-09-27T15:05:31;3.03;;;0.40;;
47715;SDS011;33476;50.984;3.538;2022-09-27T15:07:59;2.03;;;0.30;;
47715;SDS011;33476;50.984;3.538;2022-09-27T15:10:28;2.55;;;0.35;;
47715;SDS011;33476;50.984;3.538;2022-09-27T15:12:56;4.00;;;0.60;;
47715;SDS011;33476;50.984;3.538;2022-09-27T15:15:26;5.75;;;0.25;;
47715;SDS011;33476;50.984;3.538;2022-09-27T15:17:56;3.30;;;1.17;;
47715;SDS011;33476;50.984;3.538;2022-09-27T15:22:52;5.15;;;0.52;;
47715;SDS011;33476;50.984;3.538;2022-09-27T15:25:23;2.58;;;0.30;;
47715;SDS011;33476;50.984;3.538;2022-09-27T15:28:19;4.57;;;0.70;;
47715;SDS011;33476;50.984;3.538;2022-09-27T15:30:52;10.38;;;0.88;;
47715;SDS011;33476;50.984;3.538;2022-09-27T15:33:23;2.67;;;0.40;;
47715;SDS011;33476;50.984;3.538;2022-09-27T15:35:54;6.03;;;0.40;;
47715;SDS011;33476;50.984;3.538;2022-09-27T15:38:26;4.40;;;0.60;;
47715;SDS011;33476;50.984;3.538;2022-09-27T15:45:57;5.47;;;0.50;;
47715;SDS011;33476;50.984;3.538;2022-09-27T15:48:26;7.35;;;0.45;;
47715;SDS011;33476;50.984;3.538;2022-09-27T15:50:52;4.88;;;0.95;;
47715;SDS011;33476;50.984;3.538;2022-09-27T15:55:58;8.15;;;0.77;;
47715;SDS011;33476;50.984;3.538;2022-09-27T15:58:30;7.30;;;0.70;;
47715;SDS011;33476;50.984;3.538;2022-09-27T16:00:57;6.68;;;0.68;;
47715;SDS011;33476;50.984;3.538;2022-09-27T16:03:26;6.18;;;0.50;;
47715;SDS011;33476;50.984;3.538;2022-09-27T16:05:52;4.03;;;0.68;;
47715;SDS011;33476;50.984;3.538;2022-09-27T16:08:20;9.50;;;0.90;;
47715;SDS011;33476;50.984;3.538;2022-09-27T16:10:47;8.15;;;0.82;;
47715;SDS011;33476;50.984;3.538;2022-09-27T16:13:15;7.13;;;1.05;;
47715;SDS011;33476;50.984;3.538;2022-09-27T16:15:40;7.60;;;1.30;;
47715;SDS011;33476;50.984;3.538;2022-09-27T16:18:06;8.65;;;1.00;;
47715;SDS011;33476;50.984;3.538;2022-09-27T16:20:31;6.43;;;0.70;;
47715;SDS011;33476;50.984;3.538;2022-09-27T16:22:57;12.20;;;1.23;;
47715;SDS011;33476;50.984;3.538;2022-09-27T16:25:22;6.53;;;0.70;;
47715;SDS011;33476;50.984;3.538;2022-09-27T16:27:49;6.68;;;0.82;;
47715;SDS011;33476;50.984;3.538;2022-09-27T16:30:16;13.07;;;0.88;;
47715;SDS011;33476;50.984;3.538;2022-09-27T16:32:45;6.85;;;0.95;;
47715;SDS011;33476;50.984;3.538;2022-09-27T16:35:12;9.50;;;0.87;;
47715;SDS011;33476;50.984;3.538;2022-09-27T16:37:39;10.50;;;1.20;;
47715;SDS011;33476;50.984;3.538;2022-09-27T16:40:05;5.20;;;0.77;;
47715;SDS011;33476;50.984;3.538;2022-09-27T16:42:35;7.95;;;0.98;;
47715;SDS011;33476;50.984;3.538;2022-09-27T16:45:01;7.32;;;0.82;;
47715;SDS011;33476;50.984;3.538;2022-09-27T16:47:28;7.78;;;0.80;;
47715;SDS011;33476;50.984;3.538;2022-09-27T16:49:53;4.85;;;0.80;;
47715;SDS011;33476;50.984;3.538;2022-09-27T16:52:37;5.10;;;0.63;;
47715;SDS011;33476;50.984;3.538;2022-09-27T16:55:03;8.23;;;0.90;;
47715;SDS011;33476;50.984;3.538;2022-09-27T16:57:30;6.35;;;1.35;;
47715;SDS011;33476;50.984;3.538;2022-09-27T16:59:57;9.57;;;0.90;;
47715;SDS011;33476;50.984;3.538;2022-09-27T17:02:23;4.85;;;0.63;;
47715;SDS011;33476;50.984;3.538;2022-09-27T17:04:49;3.55;;;0.47;;
47715;SDS011;33476;50.984;3.538;2022-09-27T17:07:17;2.92;;;0.50;;
47715;SDS011;33476;50.984;3.538;2022-09-27T17:09:43;4.53;;;0.40;;
47715;SDS011;33476;50.984;3.538;2022-09-27T17:12:09;3.22;;;0.40;;
47715;SDS011;33476;50.984;3.538;2022-09-27T17:14:35;2.10;;;0.40;;
47715;SDS011;33476;50.984;3.538;2022-09-27T17:17:00;2.50;;;0.25;;
47715;SDS011;33476;50.984;3.538;2022-09-27T17:19:25;1.42;;;0.20;;
47715;SDS011;33476;50.984;3.538;2022-09-27T17:21:52;1.63;;;0.28;;
47715;SDS011;33476;50.984;3.538;2022-09-27T17:24:19;2.25;;;0.17;;
47715;SDS011;33476;50.984;3.538;2022-09-27T17:26:44;4.93;;;0.30;;
47715;SDS011;33476;50.984;3.538;2022-09-27T17:29:10;2.17;;;0.28;;
47715;SDS011;33476;50.984;3.538;2022-09-27T17:31:37;2.13;;;0.32;;
47715;SDS011;33476;50.984;3.538;2022-09-27T17:34:04;1.00;;;0.22;;
47715;SDS011;33476;50.984;3.538;2022-09-27T17:36:31;6.50;;;1.98;;
47715;SDS011;33476;50.984;3.538;2022-09-27T17:38:59;4.88;;;2.55;;
47715;SDS011;33476;50.984;3.538;2022-09-27T17:41:25;7.20;;;1.50;;
47715;SDS011;33476;50.984;3.538;2022-09-27T17:43:52;1.95;;;0.52;;
47715;SDS011;33476;50.984;3.538;2022-09-27T17:46:20;6.45;;;0.68;;
47715;SDS011;33476;50.984;3.538;2022-09-27T17:48:47;5.65;;;0.63;;
47715;SDS011;33476;50.984;3.538;2022-09-27T17:51:32;6.32;;;0.60;;
47715;SDS011;33476;50.984;3.538;2022-09-27T17:54:02;1.73;;;0.40;;
47715;SDS011;33476;50.984;3.538;2022-09-27T17:56:29;1.60;;;0.40;;
47715;SDS011;33476;50.984;3.538;2022-09-27T17:58:56;1.00;;;0.40;;
47715;SDS011;33476;50.984;3.538;2022-09-27T18:01:23;2.92;;;0.30;;
47715;SDS011;33476;50.984;3.538;2022-09-27T18:03:53;3.13;;;0.90;;
47715;SDS011;33476;50.984;3.538;2022-09-27T18:06:19;2.75;;;1.05;;